createdAt,value
2017-06-14T00:00:07.615Z,17.67
2017-06-14T00:00:26.947Z,17.69
2017-06-14T00:00:46.375Z,17.69
2017-06-14T00:01:05.706Z,17.64
2017-06-14T00:01:25.015Z,17.73
2017-06-14T00:01:44.325Z,17.71
2017-06-14T00:02:03.626Z,17.69
2017-06-14T00:02:22.422Z,17.7
2017-06-14T00:02:41.752Z,17.67
2017-06-14T00:03:01.096Z,17.73
2017-06-14T00:03:20.428Z,17.69
2017-06-14T00:03:39.236Z,17.74
2017-06-14T00:03:58.048Z,17.67
2017-06-14T00:04:17.395Z,17.71
2017-06-14T00:04:36.198Z,17.71
2017-06-14T00:04:55.010Z,17.7
2017-06-14T00:05:14.432Z,17.69
2017-06-14T00:05:33.230Z,17.66
2017-06-14T00:05:52.548Z,17.7
2017-06-14T00:06:10.843Z,17.69
2017-06-14T00:06:30.152Z,17.67
2017-06-14T00:06:49.487Z,17.64
2017-06-14T00:07:08.802Z,17.63
2017-06-14T00:07:27.082Z,17.7
2017-06-14T00:07:45.897Z,17.64
2017-06-14T00:08:05.232Z,17.57
2017-06-14T00:08:24.545Z,17.53
2017-06-14T00:08:43.357Z,17.53
2017-06-14T00:09:02.670Z,17.48
2017-06-14T00:09:22.101Z,17.47
2017-06-14T00:09:41.427Z,17.44
2017-06-14T00:10:00.764Z,17.44
2017-06-14T00:10:20.075Z,17.4
2017-06-14T00:10:38.888Z,17.38
2017-06-14T00:10:58.227Z,17.5
2017-06-14T00:11:17.003Z,17.46
2017-06-14T00:11:36.328Z,17.4
2017-06-14T00:11:55.115Z,17.46
2017-06-14T00:12:14.422Z,17.48
2017-06-14T00:12:33.205Z,17.48
2017-06-14T00:12:52.520Z,17.5
2017-06-14T00:13:11.852Z,17.43
2017-06-14T00:13:31.198Z,17.43
2017-06-14T00:13:50.524Z,17.4
2017-06-14T00:14:09.316Z,17.4
2017-06-14T00:14:28.226Z,17.35
2017-06-14T00:14:47.551Z,17.46
2017-06-14T00:15:06.362Z,17.38
2017-06-14T00:15:25.658Z,17.43
2017-06-14T00:15:43.949Z,17.39
2017-06-14T00:16:03.299Z,17.47
2017-06-14T00:16:22.633Z,17.51
2017-06-14T00:16:41.955Z,17.51
2017-06-14T00:17:01.373Z,17.53
2017-06-14T00:17:20.366Z,17.54
2017-06-14T00:17:39.234Z,17.55
2017-06-14T00:17:58.581Z,17.5
2017-06-14T00:18:17.884Z,17.5
2017-06-14T00:18:37.226Z,17.54
2017-06-14T00:18:56.017Z,17.46
2017-06-14T00:19:14.806Z,17.53
2017-06-14T00:19:34.129Z,17.54
2017-06-14T00:19:53.472Z,17.54
2017-06-14T00:20:12.251Z,17.57
2017-06-14T00:20:31.575Z,17.57
2017-06-14T00:20:50.376Z,17.54
2017-06-14T00:21:09.186Z,17.53
2017-06-14T00:21:28.507Z,17.66
2017-06-14T00:21:47.837Z,17.64
2017-06-14T00:22:07.139Z,17.57
2017-06-14T00:22:26.430Z,17.6
2017-06-14T00:22:45.729Z,17.64
2017-06-14T00:23:05.048Z,17.67
2017-06-14T00:23:24.370Z,17.69
2017-06-14T00:23:43.160Z,17.64
2017-06-14T00:24:02.506Z,17.67
2017-06-14T00:24:21.294Z,17.63
2017-06-14T00:24:40.118Z,17.71
2017-06-14T00:24:59.453Z,17.66
2017-06-14T00:25:18.774Z,17.71
2017-06-14T00:25:38.078Z,17.74
2017-06-14T00:25:57.394Z,17.73
2017-06-14T00:26:16.727Z,17.69
2017-06-14T00:26:35.530Z,17.66
2017-06-14T00:26:54.889Z,17.66
2017-06-14T00:27:14.216Z,17.64
2017-06-14T00:27:33.565Z,17.64
2017-06-14T00:27:52.906Z,17.6
2017-06-14T00:28:12.255Z,17.71
2017-06-14T00:28:31.579Z,17.73
2017-06-14T00:28:50.872Z,17.73
2017-06-14T00:29:10.175Z,17.71
2017-06-14T00:29:29.496Z,17.67
2017-06-14T00:29:48.323Z,17.77
2017-06-14T00:30:07.112Z,17.67
2017-06-14T00:30:25.393Z,17.76
2017-06-14T00:30:44.167Z,17.71
2017-06-14T00:31:03.493Z,17.7
2017-06-14T00:31:22.274Z,17.79
2017-06-14T00:31:41.603Z,17.77
2017-06-14T00:32:00.409Z,17.74
2017-06-14T00:32:19.221Z,17.79
2017-06-14T00:32:38.030Z,17.71
2017-06-14T00:32:57.346Z,17.66
2017-06-14T00:33:16.649Z,17.66
2017-06-14T00:33:35.434Z,17.67
2017-06-14T00:33:54.718Z,17.67
2017-06-14T00:34:14.073Z,17.7
2017-06-14T00:34:32.878Z,17.6
2017-06-14T00:34:52.208Z,17.63
2017-06-14T00:35:10.980Z,17.64
2017-06-14T00:35:30.299Z,17.64
2017-06-14T00:35:49.626Z,17.57
2017-06-14T00:36:08.417Z,17.5
2017-06-14T00:36:27.237Z,17.53
2017-06-14T00:36:46.548Z,17.53
2017-06-14T00:37:05.874Z,17.48
2017-06-14T00:37:25.181Z,17.39
2017-06-14T00:37:44.553Z,17.35
2017-06-14T00:38:03.883Z,17.36
2017-06-14T00:38:23.209Z,17.4
2017-06-14T00:38:42.503Z,17.21
2017-06-14T00:39:03.814Z,17.29
2017-06-14T00:39:22.600Z,17.33
2017-06-14T00:39:41.913Z,17.3
2017-06-14T00:40:01.251Z,17.36
2017-06-14T00:40:20.555Z,17.3
2017-06-14T00:40:39.876Z,17.2
2017-06-14T00:40:59.236Z,17.23
2017-06-14T00:41:18.536Z,17.21
2017-06-14T00:41:37.976Z,17.21
2017-06-14T00:41:57.293Z,17.2
2017-06-14T00:42:16.593Z,17.15
2017-06-14T00:42:35.393Z,17.17
2017-06-14T00:42:54.722Z,17.14
2017-06-14T00:43:13.520Z,17.15
2017-06-14T00:43:32.319Z,17.14
2017-06-14T00:43:51.114Z,17.13
2017-06-14T00:44:10.427Z,17.03
2017-06-14T00:44:29.760Z,17.07
2017-06-14T00:44:49.094Z,17.03
2017-06-14T00:45:08.411Z,17.08
2017-06-14T00:45:27.202Z,17.07
2017-06-14T00:45:46.535Z,17.1
2017-06-14T00:46:05.857Z,17.08
2017-06-14T00:46:25.183Z,17.14
2017-06-14T00:46:44.504Z,17.02
2017-06-14T00:47:03.824Z,17.14
2017-06-14T00:47:22.628Z,17.1
2017-06-14T00:47:41.953Z,17.07
2017-06-14T00:48:01.280Z,17.08
2017-06-14T00:48:20.590Z,17.05
2017-06-14T00:48:39.407Z,17.05
2017-06-14T00:48:58.707Z,17.18
2017-06-14T00:49:18.042Z,17.07
2017-06-14T00:49:37.348Z,17.14
2017-06-14T00:49:56.159Z,17.11
2017-06-14T00:50:15.486Z,17.14
2017-06-14T00:50:34.802Z,17.1
2017-06-14T00:50:54.126Z,17.1
2017-06-14T00:51:13.436Z,17.1
2017-06-14T00:51:32.795Z,17.1
2017-06-14T00:51:52.114Z,17.05
2017-06-14T00:52:11.452Z,17.14
2017-06-14T00:52:30.813Z,17.1
2017-06-14T00:52:50.104Z,17.13
2017-06-14T00:53:09.402Z,17.11
2017-06-14T00:53:28.702Z,17.13
2017-06-14T00:53:48.004Z,17.1
2017-06-14T00:54:07.342Z,17.07
2017-06-14T00:54:26.655Z,17.1
2017-06-14T00:54:45.962Z,17.07
2017-06-14T00:55:05.285Z,17.03
2017-06-14T00:55:24.601Z,17.07
2017-06-14T00:55:43.923Z,17.1
2017-06-14T00:56:03.248Z,17.03
2017-06-14T00:56:22.550Z,16.99
2017-06-14T00:56:41.876Z,17.07
2017-06-14T00:57:01.156Z,17.1
2017-06-14T00:57:20.503Z,17.05
2017-06-14T00:57:39.840Z,17.05
2017-06-14T00:57:58.653Z,17.08
2017-06-14T00:58:17.968Z,17.05
2017-06-14T00:58:36.746Z,17.13
2017-06-14T00:58:55.553Z,17.15
2017-06-14T00:59:14.871Z,17.11
2017-06-14T00:59:34.200Z,17.17
2017-06-14T00:59:53.545Z,17.18
2017-06-14T01:00:12.352Z,17.18
2017-06-14T01:00:31.654Z,17.14
2017-06-14T01:00:50.958Z,17.17
2017-06-14T01:01:10.265Z,17.17
2017-06-14T01:01:29.594Z,17.15
2017-06-14T01:01:48.914Z,17.08
2017-06-14T01:02:08.252Z,16.98
2017-06-14T01:02:27.581Z,17.2
2017-06-14T01:02:46.907Z,17.11
2017-06-14T01:03:06.210Z,17.05
2017-06-14T01:03:25.502Z,17.2
2017-06-14T01:03:44.835Z,17.05
2017-06-14T01:04:04.126Z,17.11
2017-06-14T01:04:23.437Z,17.03
2017-06-14T01:04:42.785Z,16.95
2017-06-14T01:05:02.109Z,16.92
2017-06-14T01:05:21.415Z,16.98
2017-06-14T01:05:40.716Z,16.95
2017-06-14T01:05:59.522Z,16.9
2017-06-14T01:06:18.326Z,16.88
2017-06-14T01:06:37.605Z,16.88
2017-06-14T01:06:56.411Z,16.81
2017-06-14T01:07:15.231Z,16.81
2017-06-14T01:07:34.541Z,16.8
2017-06-14T01:07:53.865Z,16.8
2017-06-14T01:08:13.207Z,16.78
2017-06-14T01:08:32.533Z,16.82
2017-06-14T01:08:51.326Z,16.81
2017-06-14T01:09:10.099Z,16.8
2017-06-14T01:09:29.412Z,16.82
2017-06-14T01:09:48.718Z,16.85
2017-06-14T01:10:08.054Z,16.85
2017-06-14T01:10:27.378Z,16.82
2017-06-14T01:10:46.195Z,16.77
2017-06-14T01:11:05.001Z,16.78
2017-06-14T01:11:24.351Z,16.78
2017-06-14T01:11:43.698Z,16.82
2017-06-14T01:12:03.060Z,16.81
2017-06-14T01:12:21.890Z,16.85
2017-06-14T01:12:40.170Z,16.88
2017-06-14T01:12:58.982Z,16.75
2017-06-14T01:13:17.802Z,16.8
2017-06-14T01:13:37.086Z,16.8
2017-06-14T01:13:56.387Z,16.8
2017-06-14T01:14:15.238Z,16.88
2017-06-14T01:14:34.574Z,16.81
2017-06-14T01:14:53.395Z,16.8
2017-06-14T01:15:12.302Z,16.82
2017-06-14T01:15:31.197Z,16.8
2017-06-14T01:15:49.987Z,16.89
2017-06-14T01:16:08.778Z,16.9
2017-06-14T01:16:28.129Z,16.92
2017-06-14T01:16:47.431Z,16.95
2017-06-14T01:17:06.741Z,16.93
2017-06-14T01:17:26.076Z,16.9
2017-06-14T01:17:45.395Z,16.95
2017-06-14T01:18:04.173Z,16.92
2017-06-14T01:18:22.951Z,16.93
2017-06-14T01:18:42.278Z,16.96
2017-06-14T01:19:01.576Z,16.95
2017-06-14T01:19:20.916Z,17
2017-06-14T01:19:40.242Z,16.96
2017-06-14T01:19:59.580Z,16.9
2017-06-14T01:20:18.895Z,16.92
2017-06-14T01:20:37.741Z,16.95
2017-06-14T01:20:56.527Z,16.9
2017-06-14T01:21:15.840Z,17.07
2017-06-14T01:21:35.144Z,17.1
2017-06-14T01:21:54.470Z,17.05
2017-06-14T01:22:13.781Z,17.1
2017-06-14T01:22:32.570Z,17.07
2017-06-14T01:22:51.911Z,17.03
2017-06-14T01:23:10.713Z,17.03
2017-06-14T01:23:30.012Z,17.05
2017-06-14T01:23:48.834Z,17.07
2017-06-14T01:24:08.165Z,17.1
2017-06-14T01:24:27.472Z,17.17
2017-06-14T01:24:46.829Z,17.15
2017-06-14T01:25:06.214Z,17.14
2017-06-14T01:25:25.536Z,17.17
2017-06-14T01:25:44.869Z,17.17
2017-06-14T01:26:04.184Z,17.15
2017-06-14T01:26:23.515Z,17.15
2017-06-14T01:26:41.792Z,17.03
2017-06-14T01:27:01.173Z,17.17
2017-06-14T01:27:19.987Z,17.05
2017-06-14T01:27:39.311Z,17.13
2017-06-14T01:27:58.226Z,17.08
2017-06-14T01:28:17.536Z,17.05
2017-06-14T01:28:36.833Z,17
2017-06-14T01:28:56.159Z,17.05
2017-06-14T01:29:15.481Z,17.02
2017-06-14T01:29:34.783Z,17.07
2017-06-14T01:29:53.592Z,16.98
2017-06-14T01:30:12.943Z,17.07
2017-06-14T01:30:32.294Z,16.92
2017-06-14T01:30:51.618Z,16.99
2017-06-14T01:31:10.954Z,16.96
2017-06-14T01:31:30.276Z,16.92
2017-06-14T01:31:49.591Z,16.96
2017-06-14T01:32:08.378Z,16.99
2017-06-14T01:32:27.695Z,16.93
2017-06-14T01:32:47.016Z,16.93
2017-06-14T01:33:06.334Z,17
2017-06-14T01:33:25.141Z,17.03
2017-06-14T01:33:44.451Z,17.1
2017-06-14T01:34:03.780Z,17.05
2017-06-14T01:34:22.072Z,17.08
2017-06-14T01:34:41.376Z,17.13
2017-06-14T01:35:00.194Z,17.05
2017-06-14T01:35:18.993Z,17.05
2017-06-14T01:35:38.330Z,17
2017-06-14T01:35:57.143Z,17.17
2017-06-14T01:36:16.457Z,17.05
2017-06-14T01:36:35.276Z,17.07
2017-06-14T01:36:54.074Z,17.14
2017-06-14T01:37:12.362Z,17
2017-06-14T01:37:31.201Z,17.05
2017-06-14T01:37:50.532Z,17.05
2017-06-14T01:38:09.867Z,17.05
2017-06-14T01:38:29.204Z,17
2017-06-14T01:38:48.511Z,17.11
2017-06-14T01:39:06.833Z,17.17
2017-06-14T01:39:26.189Z,17.11
2017-06-14T01:39:45.504Z,17.14
2017-06-14T01:40:04.805Z,17.15
2017-06-14T01:40:24.099Z,17.21
2017-06-14T01:40:43.435Z,17.13
2017-06-14T01:41:02.896Z,17.15
2017-06-14T01:41:22.233Z,17.17
2017-06-14T01:41:41.538Z,17.17
2017-06-14T01:42:00.836Z,17.07
2017-06-14T01:42:20.166Z,16.99
2017-06-14T01:42:39.495Z,17.11
2017-06-14T01:42:58.820Z,17.07
2017-06-14T01:43:18.119Z,17.03
2017-06-14T01:43:37.430Z,16.92
2017-06-14T01:43:56.718Z,16.95
2017-06-14T01:44:16.038Z,16.95
2017-06-14T01:44:35.394Z,17
2017-06-14T01:44:54.789Z,16.92
2017-06-14T01:45:14.121Z,16.99
2017-06-14T01:45:33.434Z,16.96
2017-06-14T01:45:52.767Z,16.95
2017-06-14T01:46:11.042Z,16.9
2017-06-14T01:46:30.353Z,16.92
2017-06-14T01:46:49.144Z,16.9
2017-06-14T01:47:08.467Z,16.9
2017-06-14T01:47:27.771Z,16.9
2017-06-14T01:47:47.077Z,16.9
2017-06-14T01:48:06.391Z,16.9
2017-06-14T01:48:25.212Z,16.96
2017-06-14T01:48:44.550Z,16.93
2017-06-14T01:49:03.348Z,16.85
2017-06-14T01:49:22.113Z,16.92
2017-06-14T01:49:40.877Z,16.95
2017-06-14T01:49:59.659Z,16.92
2017-06-14T01:50:18.958Z,16.95
2017-06-14T01:50:38.282Z,17
2017-06-14T01:50:57.837Z,17.02
2017-06-14T01:51:17.134Z,16.95
2017-06-14T01:51:36.179Z,17.02
2017-06-14T01:51:55.729Z,16.95
2017-06-14T01:52:15.211Z,17
2017-06-14T01:52:34.938Z,16.96
2017-06-14T01:52:55.951Z,16.96
2017-06-14T01:53:15.521Z,16.96
2017-06-14T01:54:03.797Z,17.07
2017-06-14T01:54:24.744Z,17.03
2017-06-14T01:54:44.915Z,16.99
2017-06-14T01:55:18.443Z,17
2017-06-14T01:55:37.355Z,17.07
2017-06-14T01:55:56.818Z,16.93
2017-06-14T01:56:16.726Z,17.03
2017-06-14T01:57:25.208Z,17.08
2017-06-14T01:57:44.161Z,17.03
2017-06-14T01:59:12.752Z,16.96
2017-06-14T01:59:33.339Z,16.95
2017-06-14T01:59:53.976Z,17.05
2017-06-14T02:00:14.185Z,17.07
2017-06-14T02:00:48.032Z,16.95
2017-06-14T02:01:07.354Z,16.95
2017-06-14T02:01:26.246Z,17.03
2017-06-14T02:01:45.538Z,16.96
2017-06-14T02:02:04.886Z,17.02
2017-06-14T02:02:24.222Z,17.07
2017-06-14T02:02:43.545Z,17.07
2017-06-14T02:03:02.362Z,17.13
2017-06-14T02:03:21.676Z,17.08
2017-06-14T02:03:41.049Z,17.17
2017-06-14T02:04:00.607Z,17.1
2017-06-14T02:04:19.933Z,17.1
2017-06-14T02:04:39.248Z,17.07
2017-06-14T02:04:58.559Z,17.07
2017-06-14T02:05:17.865Z,17.1
2017-06-14T02:05:37.217Z,17.07
2017-06-14T02:05:56.017Z,17.05
2017-06-14T02:06:14.815Z,17.03
2017-06-14T02:06:32.555Z,17.02
2017-06-14T02:06:50.831Z,17.1
2017-06-14T02:07:09.619Z,17.05
2017-06-14T02:07:28.916Z,17.05
2017-06-14T02:07:48.265Z,17.02
2017-06-14T02:08:07.585Z,17.1
2017-06-14T02:08:26.920Z,17.1
2017-06-14T02:08:46.200Z,17.03
2017-06-14T02:09:05.533Z,17
2017-06-14T02:09:24.335Z,17.05
2017-06-14T02:09:42.605Z,17.11
2017-06-14T02:10:01.946Z,17.08
2017-06-14T02:10:21.238Z,17.07
2017-06-14T02:10:39.513Z,17.03
2017-06-14T02:10:58.864Z,17.1
2017-06-14T02:11:18.193Z,17.05
2017-06-14T02:11:37.497Z,17.07
2017-06-14T02:11:56.790Z,17.03
2017-06-14T02:12:16.103Z,17.17
2017-06-14T02:12:35.415Z,17.13
2017-06-14T02:12:54.735Z,17.07
2017-06-14T02:13:14.084Z,17.05
2017-06-14T02:13:33.409Z,17.1
2017-06-14T02:13:52.220Z,17.18
2017-06-14T02:14:11.546Z,17.05
2017-06-14T02:14:30.365Z,17.05
2017-06-14T02:14:49.681Z,17.07
2017-06-14T02:15:08.987Z,17.11
2017-06-14T02:15:27.787Z,17.14
2017-06-14T02:15:47.112Z,17.17
2017-06-14T02:16:06.418Z,17.13
2017-06-14T02:16:25.190Z,17.02
2017-06-14T02:16:44.008Z,17.02
2017-06-14T02:17:03.316Z,17.11
2017-06-14T02:17:22.618Z,17.11
2017-06-14T02:17:40.900Z,17.15
2017-06-14T02:18:00.236Z,17.17
2017-06-14T02:18:19.555Z,17.13
2017-06-14T02:18:38.928Z,17.18
2017-06-14T02:18:57.747Z,17.1
2017-06-14T02:19:17.061Z,17.17
2017-06-14T02:19:36.400Z,17.14
2017-06-14T02:19:55.759Z,17.17
2017-06-14T02:20:15.139Z,17.15
2017-06-14T02:20:33.983Z,17.15
2017-06-14T02:20:53.324Z,17.11
2017-06-14T02:21:12.131Z,17.17
2017-06-14T02:21:31.485Z,17.05
2017-06-14T02:21:50.813Z,17.03
2017-06-14T02:22:09.619Z,17.13
2017-06-14T02:22:28.941Z,17.08
2017-06-14T02:22:48.289Z,17.07
2017-06-14T02:23:07.067Z,17.11
2017-06-14T02:23:25.855Z,17.13
2017-06-14T02:23:44.655Z,17.07
2017-06-14T02:24:03.994Z,17.08
2017-06-14T02:24:23.327Z,17.11
2017-06-14T02:24:42.158Z,17.07
2017-06-14T02:25:01.502Z,17.13
2017-06-14T02:25:20.826Z,17.14
2017-06-14T02:25:40.134Z,17.11
2017-06-14T02:25:59.421Z,17.07
2017-06-14T02:26:18.727Z,17.15
2017-06-14T02:26:37.524Z,17.15
2017-06-14T02:26:56.394Z,17.17
2017-06-14T02:27:15.706Z,17.08
2017-06-14T02:27:35.063Z,17.17
2017-06-14T02:27:54.369Z,17.18
2017-06-14T02:28:13.756Z,17.11
2017-06-14T02:28:33.070Z,17.05
2017-06-14T02:28:51.884Z,17.05
2017-06-14T02:29:11.199Z,17.11
2017-06-14T02:29:30.534Z,16.98
2017-06-14T02:29:49.341Z,17.11
2017-06-14T02:30:08.162Z,16.95
2017-06-14T02:30:26.975Z,16.95
2017-06-14T02:30:46.300Z,16.92
2017-06-14T02:31:05.118Z,16.9
2017-06-14T02:31:23.937Z,16.92
2017-06-14T02:31:42.739Z,16.95
2017-06-14T02:32:02.081Z,16.95
2017-06-14T02:32:20.931Z,17.07
2017-06-14T02:32:39.742Z,17.07
2017-06-14T02:32:58.045Z,17.03
2017-06-14T02:33:17.437Z,17.08
2017-06-14T02:33:36.755Z,17.14
2017-06-14T02:33:56.086Z,17.1
2017-06-14T02:34:15.395Z,16.96
2017-06-14T02:34:34.701Z,16.95
2017-06-14T02:34:54.016Z,16.99
2017-06-14T02:35:13.348Z,16.92
2017-06-14T02:35:32.665Z,16.98
2017-06-14T02:35:51.958Z,16.93
2017-06-14T02:36:11.262Z,16.96
2017-06-14T02:36:30.603Z,16.82
2017-06-14T02:36:49.946Z,16.84
2017-06-14T02:37:09.256Z,16.85
2017-06-14T02:37:28.577Z,16.88
2017-06-14T02:37:47.377Z,16.93
2017-06-14T02:38:06.699Z,16.82
2017-06-14T02:38:25.502Z,16.85
2017-06-14T02:38:44.821Z,16.77
2017-06-14T02:39:04.120Z,16.75
2017-06-14T02:39:23.417Z,16.77
2017-06-14T02:39:42.722Z,16.67
2017-06-14T02:40:02.029Z,16.75
2017-06-14T02:40:21.335Z,16.74
2017-06-14T02:40:40.665Z,16.75
2017-06-14T02:40:59.971Z,16.75
2017-06-14T02:41:19.294Z,16.71
2017-06-14T02:41:38.592Z,16.73
2017-06-14T02:41:57.915Z,16.74
2017-06-14T02:42:17.247Z,16.67
2017-06-14T02:42:36.581Z,16.67
2017-06-14T02:42:55.901Z,16.73
2017-06-14T02:43:15.239Z,16.75
2017-06-14T02:43:34.583Z,16.73
2017-06-14T02:43:53.376Z,16.77
2017-06-14T02:44:12.703Z,16.75
2017-06-14T02:44:32.014Z,16.82
2017-06-14T02:44:50.842Z,16.81
2017-06-14T02:45:09.654Z,16.84
2017-06-14T02:45:28.983Z,16.8
2017-06-14T02:45:47.773Z,16.81
2017-06-14T02:46:07.053Z,16.81
2017-06-14T02:46:26.374Z,16.85
2017-06-14T02:46:45.711Z,16.88
2017-06-14T02:47:04.549Z,16.84
2017-06-14T02:47:23.858Z,16.92
2017-06-14T02:47:43.188Z,16.92
2017-06-14T02:48:02.490Z,16.96
2017-06-14T02:48:21.316Z,16.93
2017-06-14T02:48:40.621Z,16.96
2017-06-14T02:48:59.949Z,16.96
2017-06-14T02:49:19.279Z,16.96
2017-06-14T02:49:38.595Z,17
2017-06-14T02:49:56.875Z,17.02
2017-06-14T02:50:15.150Z,16.96
2017-06-14T02:50:34.497Z,17.07
2017-06-14T02:50:53.820Z,17.07
2017-06-14T02:51:13.145Z,17.07
2017-06-14T02:51:32.459Z,17
2017-06-14T02:51:51.793Z,17.03
2017-06-14T02:52:10.580Z,16.99
2017-06-14T02:52:29.410Z,16.99
2017-06-14T02:52:48.219Z,17.08
2017-06-14T02:53:07.535Z,17.03
2017-06-14T02:53:26.877Z,17.02
2017-06-14T02:53:46.196Z,17.08
2017-06-14T02:54:05.553Z,17.07
2017-06-14T02:54:24.903Z,17.11
2017-06-14T02:54:44.204Z,17.05
2017-06-14T02:55:03.512Z,17.08
2017-06-14T02:55:22.331Z,17.15
2017-06-14T02:55:41.630Z,17.15
2017-06-14T02:56:00.949Z,17.08
2017-06-14T02:56:20.241Z,17.1
2017-06-14T02:56:39.603Z,17.14
2017-06-14T02:56:58.922Z,17.07
2017-06-14T02:57:18.242Z,16.98
2017-06-14T02:57:37.552Z,17.02
2017-06-14T02:57:56.868Z,17.11
2017-06-14T02:58:16.210Z,17.14
2017-06-14T02:58:35.519Z,17.1
2017-06-14T02:58:54.820Z,17.03
2017-06-14T02:59:14.118Z,17.1
2017-06-14T02:59:32.904Z,17.07
2017-06-14T02:59:52.240Z,17.03
2017-06-14T03:00:11.557Z,16.98
2017-06-14T03:00:30.336Z,17
2017-06-14T03:00:49.159Z,16.92
2017-06-14T03:01:08.479Z,16.93
2017-06-14T03:01:26.760Z,16.84
2017-06-14T03:01:46.089Z,16.84
2017-06-14T03:02:04.888Z,16.85
2017-06-14T03:02:23.689Z,16.84
2017-06-14T03:02:42.500Z,16.75
2017-06-14T03:03:01.815Z,16.66
2017-06-14T03:03:20.646Z,16.75
2017-06-14T03:03:39.962Z,16.74
2017-06-14T03:03:59.267Z,16.7
2017-06-14T03:04:17.563Z,16.74
2017-06-14T03:04:36.855Z,16.73
2017-06-14T03:04:56.154Z,16.73
2017-06-14T03:05:14.959Z,16.7
2017-06-14T03:05:34.274Z,16.63
2017-06-14T03:05:53.068Z,16.7
2017-06-14T03:06:11.871Z,16.63
2017-06-14T03:06:30.665Z,16.63
2017-06-14T03:06:49.463Z,16.55
2017-06-14T03:07:08.763Z,16.63
2017-06-14T03:07:28.069Z,16.57
2017-06-14T03:07:47.383Z,16.71
2017-06-14T03:08:06.680Z,16.67
2017-06-14T03:08:26.002Z,16.65
2017-06-14T03:08:45.323Z,16.71
2017-06-14T03:09:04.639Z,16.63
2017-06-14T03:09:23.956Z,16.7
2017-06-14T03:09:43.266Z,16.71
2017-06-14T03:10:02.572Z,16.77
2017-06-14T03:10:20.844Z,16.73
2017-06-14T03:10:40.172Z,16.75
2017-06-14T03:10:59.508Z,16.77
2017-06-14T03:11:18.824Z,16.78
2017-06-14T03:11:38.127Z,16.75
2017-06-14T03:11:57.448Z,16.8
2017-06-14T03:12:16.770Z,16.74
2017-06-14T03:12:36.063Z,16.7
2017-06-14T03:12:55.385Z,16.77
2017-06-14T03:13:14.694Z,16.73
2017-06-14T03:13:34.031Z,16.78
2017-06-14T03:13:53.355Z,16.75
2017-06-14T03:14:12.152Z,16.78
2017-06-14T03:14:31.480Z,16.77
2017-06-14T03:14:50.793Z,16.82
2017-06-14T03:15:10.104Z,16.75
2017-06-14T03:15:29.437Z,16.82
2017-06-14T03:15:48.848Z,16.8
2017-06-14T03:16:07.657Z,16.81
2017-06-14T03:16:26.968Z,16.84
2017-06-14T03:16:46.282Z,16.84
2017-06-14T03:17:05.595Z,16.85
2017-06-14T03:17:24.389Z,16.84
2017-06-14T03:17:43.681Z,16.93
2017-06-14T03:18:03.004Z,16.92
2017-06-14T03:18:22.296Z,16.88
2017-06-14T03:18:41.066Z,16.88
2017-06-14T03:19:00.378Z,16.84
2017-06-14T03:19:19.663Z,16.84
2017-06-14T03:19:38.475Z,16.88
2017-06-14T03:19:56.768Z,16.84
2017-06-14T03:20:15.581Z,16.81
2017-06-14T03:20:34.894Z,16.81
2017-06-14T03:20:54.212Z,16.81
2017-06-14T03:21:12.999Z,16.85
2017-06-14T03:21:32.321Z,16.81
2017-06-14T03:21:51.638Z,16.88
2017-06-14T03:22:10.948Z,16.82
2017-06-14T03:22:29.759Z,16.81
2017-06-14T03:22:49.082Z,16.85
2017-06-14T03:23:08.388Z,16.77
2017-06-14T03:23:27.719Z,16.82
2017-06-14T03:23:47.037Z,16.77
2017-06-14T03:24:04.796Z,16.81
2017-06-14T03:24:23.581Z,16.85
2017-06-14T03:24:42.379Z,16.77
2017-06-14T03:25:01.704Z,16.88
2017-06-14T03:25:21.024Z,16.85
2017-06-14T03:25:40.362Z,16.81
2017-06-14T03:25:59.687Z,16.78
2017-06-14T03:26:18.993Z,16.89
2017-06-14T03:26:38.347Z,16.9
2017-06-14T03:26:57.678Z,16.9
2017-06-14T03:27:16.469Z,16.78
2017-06-14T03:27:35.791Z,16.85
2017-06-14T03:27:55.083Z,16.85
2017-06-14T03:28:13.892Z,16.81
2017-06-14T03:28:33.223Z,16.88
2017-06-14T03:28:51.508Z,16.81
2017-06-14T03:29:09.766Z,16.8
2017-06-14T03:29:28.543Z,16.81
2017-06-14T03:29:47.834Z,16.88
2017-06-14T03:30:06.626Z,16.81
2017-06-14T03:30:25.929Z,16.81
2017-06-14T03:30:44.731Z,16.88
2017-06-14T03:31:04.030Z,16.84
2017-06-14T03:31:22.823Z,16.82
2017-06-14T03:31:42.176Z,16.9
2017-06-14T03:32:01.488Z,16.82
2017-06-14T03:32:20.809Z,16.88
2017-06-14T03:32:39.619Z,16.85
2017-06-14T03:32:58.432Z,16.84
2017-06-14T03:33:17.738Z,16.85
2017-06-14T03:33:37.014Z,16.8
2017-06-14T03:33:55.300Z,16.82
2017-06-14T03:34:14.608Z,16.82
2017-06-14T03:34:33.918Z,16.95
2017-06-14T03:34:52.716Z,16.96
2017-06-14T03:35:11.510Z,16.95
2017-06-14T03:35:30.307Z,16.95
2017-06-14T03:35:49.611Z,16.9
2017-06-14T03:36:08.943Z,16.96
2017-06-14T03:36:27.747Z,16.98
2017-06-14T03:36:46.557Z,17.03
2017-06-14T03:37:05.346Z,16.89
2017-06-14T03:37:24.198Z,16.8
2017-06-14T03:37:42.988Z,16.82
2017-06-14T03:38:02.280Z,16.92
2017-06-14T03:38:21.591Z,16.99
2017-06-14T03:38:40.407Z,16.89
2017-06-14T03:38:59.721Z,16.95
2017-06-14T03:39:18.503Z,16.96
2017-06-14T03:39:37.818Z,17.03
2017-06-14T03:39:56.646Z,17.05
2017-06-14T03:40:15.981Z,16.99
2017-06-14T03:40:35.290Z,16.98
2017-06-14T03:40:54.588Z,16.95
2017-06-14T03:41:13.391Z,17.1
2017-06-14T03:41:32.712Z,16.93
2017-06-14T03:41:52.050Z,16.99
2017-06-14T03:42:10.834Z,17.1
2017-06-14T03:42:30.181Z,17.07
2017-06-14T03:42:49.495Z,17.03
2017-06-14T03:43:08.806Z,17.02
2017-06-14T03:43:27.581Z,17.13
2017-06-14T03:43:46.909Z,17.07
2017-06-14T03:44:06.231Z,16.98
2017-06-14T03:44:25.016Z,16.93
2017-06-14T03:44:44.339Z,16.93
2017-06-14T03:45:03.142Z,16.92
2017-06-14T03:45:22.438Z,16.92
2017-06-14T03:45:41.737Z,16.93
2017-06-14T03:46:01.055Z,16.92
2017-06-14T03:46:20.362Z,16.96
2017-06-14T03:46:39.694Z,17
2017-06-14T03:46:59.013Z,16.96
2017-06-14T03:47:18.327Z,17
2017-06-14T03:47:37.617Z,16.93
2017-06-14T03:47:56.906Z,17
2017-06-14T03:48:15.703Z,16.98
2017-06-14T03:48:35.026Z,16.96
2017-06-14T03:48:54.323Z,17
2017-06-14T03:49:13.147Z,17.02
2017-06-14T03:49:32.463Z,17.1
2017-06-14T03:49:51.746Z,17.05
2017-06-14T03:50:10.542Z,17.13
2017-06-14T03:50:29.846Z,17.11
2017-06-14T03:50:49.161Z,17.05
2017-06-14T03:51:08.454Z,17.11
2017-06-14T03:51:27.764Z,17.03
2017-06-14T03:51:47.079Z,17.03
2017-06-14T03:52:06.374Z,17.08
2017-06-14T03:52:25.721Z,16.95
2017-06-14T03:52:45.039Z,16.96
2017-06-14T03:53:04.355Z,16.96
2017-06-14T03:53:23.671Z,16.98
2017-06-14T03:53:42.458Z,16.93
2017-06-14T03:54:01.790Z,16.95
2017-06-14T03:54:21.088Z,16.93
2017-06-14T03:54:40.382Z,17.02
2017-06-14T03:54:59.689Z,17.05
2017-06-14T03:55:19.032Z,17
2017-06-14T03:55:38.364Z,17.1
2017-06-14T03:55:57.187Z,17
2017-06-14T03:56:16.497Z,17.1
2017-06-14T03:56:36.035Z,17.05
2017-06-14T03:56:55.359Z,17.08
2017-06-14T03:57:14.649Z,17.11
2017-06-14T03:57:33.975Z,17.13
2017-06-14T03:57:53.301Z,17.05
2017-06-14T03:58:11.555Z,17.1
2017-06-14T03:58:30.904Z,17.08
2017-06-14T03:58:49.683Z,17.13
2017-06-14T03:59:09.002Z,17.02
2017-06-14T03:59:28.312Z,17.08
2017-06-14T03:59:47.114Z,17.05
2017-06-14T04:00:05.395Z,17.15
2017-06-14T04:00:24.677Z,17.17
2017-06-14T04:00:43.617Z,17.13
2017-06-14T04:01:02.408Z,17.1
2017-06-14T04:01:21.703Z,17.21
2017-06-14T04:01:40.497Z,17.21
2017-06-14T04:01:59.830Z,17.18
2017-06-14T04:02:19.155Z,17.1
2017-06-14T04:02:38.479Z,17.05
2017-06-14T04:02:57.268Z,17.02
2017-06-14T04:03:16.564Z,17.03
2017-06-14T04:03:35.850Z,17.15
2017-06-14T04:03:55.164Z,17.15
2017-06-14T04:04:14.497Z,17.07
2017-06-14T04:04:33.805Z,17.07
2017-06-14T04:04:53.094Z,17.07
2017-06-14T04:05:12.414Z,17.08
2017-06-14T04:05:31.725Z,17
2017-06-14T04:05:51.228Z,17.05
2017-06-14T04:06:10.041Z,16.96
2017-06-14T04:06:29.375Z,16.93
2017-06-14T04:06:48.683Z,17
2017-06-14T04:07:06.990Z,16.92
2017-06-14T04:07:26.298Z,16.96
2017-06-14T04:07:45.117Z,16.9
2017-06-14T04:08:04.466Z,16.9
2017-06-14T04:08:22.745Z,16.84
2017-06-14T04:08:41.539Z,16.93
2017-06-14T04:09:00.331Z,16.85
2017-06-14T04:09:19.666Z,16.84
2017-06-14T04:09:38.466Z,16.92
2017-06-14T04:09:57.262Z,16.84
2017-06-14T04:10:16.563Z,16.88
2017-06-14T04:10:35.879Z,16.89
2017-06-14T04:10:54.706Z,16.81
2017-06-14T04:11:14.027Z,16.82
2017-06-14T04:11:32.312Z,16.8